Time;durP1;ratioP1;P1;durP2;ratioP2;P2;SDS_P1;SDS_P2;PMS_P1;PMS_P2;Temp;Humidity;BMP_temperature;BMP_pressure;BME280_temperature;BME280_humidity;BME280_pressure;Samples;Min_cycle;Max_cycle;Signal;HPM_P1;HPM_P2
2022/04/01 00:00:48;;;;;;;39.05;22.62;;;;;;;10.27;100.00;97932.91;4517513;31;20087;-71
2022/04/01 00:03:16;;;;;;;38.78;22.55;;;;;;;10.25;100.00;97926.84;4517473;31;20126;-71
2022/04/01 00:05:43;;;;;;;31.87;20.08;;;;;;;10.26;100.00;97926.78;4517531;31;20125;-71
2022/04/01 00:08:11;;;;;;;29.65;19.95;;;;;;;10.26;100.00;97924.16;4517336;31;20422;-70
2022/04/01 00:10:39;;;;;;;31.95;19.58;;;;;;;10.37;100.00;97928.87;4517438;31;20083;-70
2022/04/01 00:13:07;;;;;;;31.08;19.20;;;;;;;10.43;100.00;97933.84;4516970;31;20658;-70
2022/04/01 00:15:34;;;;;;;27.45;18.98;;;;;;;10.46;100.00;97933.69;4517179;31;20134;-70
2022/04/01 00:18:03;;;;;;;29.95;19.42;;;;;;;10.48;100.00;97923.91;4517109;31;20106;-70
2022/04/01 00:20:31;;;;;;;29.75;19.58;;;;;;;10.41;100.00;97925.16;4517120;31;20096;-71
2022/04/01 00:22:58;;;;;;;28.62;18.83;;;;;;;10.32;100.00;97925.63;4517161;31;20555;-71
2022/04/01 00:25:26;;;;;;;29.33;19.48;;;;;;;10.33;100.00;97919.44;4517158;31;20167;-71
2022/04/01 00:27:54;;;;;;;29.15;19.65;;;;;;;10.31;100.00;97923.91;4517166;31;20099;-71
2022/04/01 00:30:22;;;;;;;28.92;19.70;;;;;;;10.26;100.00;97928.56;4517176;31;20154;-71
2022/04/01 00:32:50;;;;;;;30.95;20.48;;;;;;;10.32;100.00;97923.00;4516955;31;20136;-71
2022/04/01 00:35:17;;;;;;;26.00;19.37;;;;;;;10.29;100.00;97923.16;4516927;31;20125;-71
2022/04/01 00:37:44;;;;;;;29.55;21.00;;;;;;;10.26;100.00;97911.00;4516886;31;20427;-70
2022/04/01 00:40:12;;;;;;;27.25;19.33;;;;;;;10.24;100.00;97914.59;4516874;31;20095;-70
2022/04/01 00:42:41;;;;;;;30.98;20.80;;;;;;;10.21;100.00;97909.47;4517124;31;20608;-71
2022/04/01 00:45:10;;;;;;;33.40;21.85;;;;;;;10.19;100.00;97900.81;4516800;31;20610;-71
2022/04/01 00:47:38;;;;;;;32.28;20.58;;;;;;;10.20;100.00;97905.16;4516722;31;20210;-71
2022/04/01 00:50:07;;;;;;;32.00;20.25;;;;;;;10.17;100.00;97905.28;4516690;31;20121;-71
2022/04/01 00:52:36;;;;;;;35.90;22.25;;;;;;;10.17;100.00;97907.94;4516744;31;20219;-71
2022/04/01 00:55:05;;;;;;;29.95;19.52;;;;;;;10.18;100.00;97907.03;4516719;31;20209;-71
2022/04/01 00:57:33;;;;;;;31.65;21.02;;;;;;;10.27;100.00;97904.78;4516663;31;20099;-71
2022/04/01 01:00:00;;;;;;;31.42;20.58;;;;;;;10.28;100.00;97903.88;4516655;31;20095;-71
2022/04/01 01:02:29;;;;;;;37.05;20.62;;;;;;;10.23;100.00;97900.59;4516905;31;20099;-71
2022/04/01 01:04:56;;;;;;;31.35;20.25;;;;;;;10.20;100.00;97903.38;4518687;31;20390;-71
2022/04/01 01:07:24;;;;;;;32.78;20.80;;;;;;;10.21;100.00;97906.84;4518723;31;20083;-71
2022/04/01 01:09:52;;;;;;;28.48;19.27;;;;;;;10.18;100.00;97912.28;4518758;31;20091;-71
2022/04/01 01:12:19;;;;;;;29.50;20.55;;;;;;;10.21;100.00;97915.63;4518504;31;20419;-71
2022/04/01 01:14:46;;;;;;;34.53;20.58;;;;;;;10.23;100.00;97913.75;4518565;31;20099;-71
2022/04/01 01:17:14;;;;;;;33.38;21.02;;;;;;;10.20;100.00;97910.41;4518590;31;20443;-71
2022/04/01 01:19:45;;;;;;;35.15;21.65;;;;;;;10.19;100.00;97917.47;4518879;31;20555;-71
2022/04/01 01:22:13;;;;;;;32.75;21.65;;;;;;;10.26;100.00;97916.25;4519036;31;20506;-71
2022/04/01 01:24:41;;;;;;;35.05;22.50;;;;;;;10.25;100.00;97916.31;4518660;31;20193;-71
2022/04/01 01:27:10;;;;;;;33.50;21.27;;;;;;;10.24;100.00;97925.12;4518412;31;20451;-71
2022/04/01 01:29:40;;;;;;;31.80;21.15;;;;;;;10.29;100.00;97918.75;4518404;31;20095;-71
2022/04/01 01:32:11;;;;;;;38.72;22.58;;;;;;;10.36;100.00;97919.28;4518454;31;20099;-71
2022/04/01 01:34:41;;;;;;;35.10;21.83;;;;;;;10.34;100.00;97912.37;4518715;31;20137;-71
2022/04/01 01:37:10;;;;;;;41.22;22.35;;;;;;;10.28;100.00;97913.53;4518537;31;20072;-71
2022/04/01 01:39:38;;;;;;;34.33;21.45;;;;;;;10.24;100.00;97907.53;4518457;31;20090;-71
2022/04/01 01:42:07;;;;;;;36.63;22.58;;;;;;;10.21;100.00;97904.22;4518596;31;20088;-71
2022/04/01 01:44:35;;;;;;;46.72;23.55;;;;;;;10.21;100.00;97904.22;4518374;31;20461;-71
2022/04/01 01:47:04;;;;;;;52.60;24.35;;;;;;;10.19;100.00;97903.44;4518481;31;20420;-70
2022/04/01 01:49:31;;;;;;;42.50;24.27;;;;;;;10.18;100.00;97907.88;4518401;31;20099;-70
2022/04/01 01:55:00;;;;;;;38.45;22.30;;;;;;;10.21;100.00;97906.84;4490935;31;20372;-70
2022/04/01 01:57:29;;;;;;;44.75;21.70;;;;;;;10.19;100.00;97904.31;4518427;31;20552;-70
2022/04/01 01:59:56;;;;;;;44.17;23.02;;;;;;;10.17;100.00;97908.78;4518430;31;20125;-70
2022/04/01 02:02:23;;;;;;;39.60;22.33;;;;;;;10.19;100.00;97908.72;4518172;31;20092;-71
2022/04/01 02:04:51;;;;;;;40.88;23.25;;;;;;;10.20;100.00;97908.62;4518280;31;20620;-71
2022/04/01 02:07:18;;;;;;;36.33;20.60;;;;;;;10.20;100.00;97899.88;4518264;31;20071;-71
2022/04/01 02:09:46;;;;;;;36.08;21.98;;;;;;;10.28;100.00;97901.25;4518143;31;20514;-71
2022/04/01 02:12:18;;;;;;;46.13;24.55;;;;;;;10.29;100.00;97904.72;4517938;31;20163;-71
2022/04/01 02:14:45;;;;;;;43.22;22.83;;;;;;;10.23;100.00;97905.84;4517400;31;20523;-71
2022/04/01 02:17:13;;;;;;;50.33;23.30;;;;;;;10.18;100.00;97901.75;4518236;31;20109;-71
2022/04/01 02:19:40;;;;;;;42.67;23.90;;;;;;;10.18;100.00;97901.75;4518201;31;20087;-70
2022/04/01 02:22:07;;;;;;;49.67;23.58;;;;;;;10.15;100.00;97900.13;4518075;31;20441;-70
2022/04/01 02:24:36;;;;;;;44.67;22.70;;;;;;;10.16;100.00;97890.44;4518274;31;20129;-70
2022/04/01 02:27:04;;;;;;;43.03;22.13;;;;;;;10.28;100.00;97882.84;4518232;31;20088;-70
2022/04/01 02:29:31;;;;;;;38.05;22.62;;;;;;;10.22;100.00;97877.00;4518066;31;20087;-70
2022/04/01 02:32:01;;;;;;;38.75;21.48;;;;;;;10.16;100.00;97877.28;4518245;31;20499;-70
2022/04/01 02:34:30;;;;;;;38.60;20.55;;;;;;;10.10;100.00;97878.44;4518346;31;20481;-70
2022/04/01 02:36:58;;;;;;;34.13;20.62;;;;;;;10.10;100.00;97873.16;4518265;31;20087;-70
2022/04/01 02:39:26;;;;;;;36.03;20.73;;;;;;;10.13;100.00;97872.19;4518058;31;20402;-71
2022/04/01 02:41:53;;;;;;;32.53;20.92;;;;;;;10.11;100.00;97874.06;4518213;31;20127;-71
2022/04/01 02:44:20;;;;;;;41.63;21.73;;;;;;;10.09;100.00;97875.91;4518271;31;20096;-71
2022/04/01 02:46:48;;;;;;;32.58;20.25;;;;;;;10.06;100.00;97879.53;4518198;31;20079;-71
2022/04/01 02:49:17;;;;;;;33.42;19.77;;;;;;;10.02;100.00;97876.19;4518183;31;20159;-71
2022/04/01 02:51:46;;;;;;;31.62;21.08;;;;;;;10.02;100.00;97867.44;4518420;31;20455;-70
2022/04/01 02:54:14;;;;;;;30.08;20.30;;;;;;;10.04;100.00;97869.09;4518221;31;20174;-70
2022/04/01 02:56:42;;;;;;;25.95;19.12;;;;;;;10.06;100.00;97869.84;4518458;31;20142;-70
2022/04/01 02:59:09;;;;;;;28.87;19.17;;;;;;;10.11;100.00;97868.78;4518261;31;20112;-70
2022/04/01 03:01:40;;;;;;;30.92;20.05;;;;;;;10.11;100.00;97860.91;4518209;31;20417;-71
2022/04/01 03:04:10;;;;;;;29.83;19.62;;;;;;;10.04;100.00;97862.97;4503488;31;20137;-71
2022/04/01 03:06:43;;;;;;;26.65;19.33;;;;;;;10.06;100.00;97859.31;4518184;31;20833;-71
2022/04/01 03:09:11;;;;;;;29.10;20.00;;;;;;;10.04;100.00;97852.47;4518258;31;20438;-71
2022/04/01 03:11:41;;;;;;;28.00;18.42;;;;;;;10.00;100.00;97858.78;4503237;31;20099;-70
2022/04/01 03:14:11;;;;;;;29.15;19.17;;;;;;;10.02;100.00;97870.09;4518251;31;20121;-70
2022/04/01 03:16:44;;;;;;;26.92;18.58;;;;;;;10.12;100.00;97888.91;4518079;31;20105;-70
2022/04/01 03:19:13;;;;;;;26.17;18.52;;;;;;;10.10;100.00;97893.38;4518106;31;20143;-70
2022/04/01 03:21:41;;;;;;;26.40;17.48;;;;;;;10.13;100.00;97880.06;4517680;31;20133;-70
2022/04/01 03:24:10;;;;;;;27.27;19.35;;;;;;;10.16;100.00;97850.97;4517985;31;20163;-70
2022/04/01 03:26:39;;;;;;;27.13;18.67;;;;;;;10.01;100.00;97849.97;4517580;31;20429;-70
2022/04/01 03:29:08;;;;;;;31.62;19.05;;;;;;;9.95;100.00;97860.78;4517896;31;20478;-70
2022/04/01 03:31:36;;;;;;;34.30;20.95;;;;;;;9.94;100.00;97867.84;4517688;31;20175;-70
2022/04/01 03:34:04;;;;;;;30.00;21.12;;;;;;;9.96;100.00;97860.69;4517886;31;20091;-70
2022/04/01 03:36:36;;;;;;;27.37;19.62;;;;;;;9.99;100.00;97871.06;4517572;31;20419;-70
2022/04/01 03:39:04;;;;;;;32.78;21.12;;;;;;;10.01;100.00;97877.13;4511125;31;20833;-71
2022/04/01 03:41:33;;;;;;;32.70;21.00;;;;;;;10.01;100.00;97878.91;4518296;31;20440;-71
2022/04/01 03:44:01;;;;;;;28.80;20.30;;;;;;;9.97;100.00;97872.09;4517878;31;20129;-71
2022/04/01 03:46:47;;;;;;;26.37;18.05;;;;;;;9.98;100.00;97869.38;4517676;31;20143;-71
2022/04/01 03:49:22;;;;;;;24.83;17.65;;;;;;;9.95;100.00;97873.94;4517638;31;20077;-71
2022/04/01 03:51:50;;;;;;;28.02;18.12;;;;;;;9.96;100.00;97873.84;4517710;31;20365;-71
2022/04/01 03:54:18;;;;;;;24.55;16.35;;;;;;;9.93;100.00;97870.53;4517537;31;20151;-71
2022/04/01 03:56:59;;;;;;;29.08;18.02;;;;;;;9.96;100.00;97875.63;4517210;31;20113;-71
2022/04/01 03:59:40;;;;;;;25.05;18.17;;;;;;;9.94;100.00;97878.34;4517846;31;20087;-68
2022/04/01 04:02:14;;;;;;;24.60;17.37;;;;;;;10.03;100.00;97879.66;4505296;31;20130;-69
2022/04/01 04:04:43;;;;;;;28.33;18.20;;;;;;;10.02;100.00;97878.81;4516519;31;20131;-69
2022/04/01 04:07:11;;;;;;;24.10;16.40;;;;;;;10.10;100.00;97873.16;4512115;31;20484;-69
2022/04/01 04:09:40;;;;;;;24.30;18.05;;;;;;;10.19;100.00;97856.09;4501220;31;20147;-69
2022/04/01 04:12:13;;;;;;;27.13;17.77;;;;;;;10.08;100.00;97840.84;4501293;31;20088;-69
2022/04/01 04:14:41;;;;;;;27.77;17.98;;;;;;;10.05;100.00;97836.59;4501564;31;20141;-69
2022/04/01 04:17:16;;;;;;;25.75;18.27;;;;;;;9.98;100.00;97829.94;4501284;31;20180;-69
2022/04/01 04:20:01;;;;;;;27.00;19.30;;;;;;;9.92;100.00;97832.84;4509176;31;20174;-69
2022/04/01 04:22:40;;;;;;;25.55;17.60;;;;;;;9.90;100.00;97841.78;4517178;31;20427;-69
2022/04/01 04:25:10;;;;;;;28.80;18.08;;;;;;;9.90;100.00;97845.25;4517177;31;20107;-69
2022/04/01 04:27:44;;;;;;;26.58;18.05;;;;;;;9.88;100.00;97835.72;4517020;31;20071;-69
2022/04/01 04:30:11;;;;;;;27.27;17.87;;;;;;;9.87;100.00;97836.66;4517249;31;20095;-69
2022/04/01 04:32:50;;;;;;;31.23;18.50;;;;;;;9.84;100.00;97842.91;4517039;31;20088;-69
2022/04/01 04:35:20;;;;;;;24.85;17.80;;;;;;;9.84;100.00;97849.97;4517273;31;20126;-69
2022/04/01 04:37:52;;;;;;;24.45;17.17;;;;;;;9.85;100.00;97846.41;4516446;31;20094;-69
2022/04/01 04:40:21;;;;;;;26.60;18.70;;;;;;;9.96;100.00;97847.56;4517093;31;20439;-69
2022/04/01 04:42:49;;;;;;;26.17;18.10;;;;;;;9.93;100.00;97855.62;4516945;31;20138;-69
2022/04/01 04:45:20;;;;;;;25.12;17.67;;;;;;;9.96;100.00;97858.06;4516961;31;20169;-69
2022/04/01 04:47:48;;;;;;;26.70;18.17;;;;;;;9.97;100.00;97859.81;4516639;31;20491;-69
2022/04/01 04:50:17;;;;;;;26.77;18.10;;;;;;;9.97;100.00;97864.22;4516785;31;20557;-69
2022/04/01 04:52:50;;;;;;;26.50;19.15;;;;;;;9.97;100.00;97866.84;4516935;31;20503;-69
2022/04/01 04:55:18;;;;;;;30.05;19.15;;;;;;;9.98;100.00;97861.50;4515477;31;20148;-69
2022/04/01 04:57:47;;;;;;;26.33;17.15;;;;;;;9.99;100.00;97854.44;4500668;31;20148;-69
2022/04/01 05:00:19;;;;;;;27.45;18.42;;;;;;;9.98;100.00;97852.75;4501159;31;20718;-69
2022/04/01 05:03:07;;;;;;;27.35;18.73;;;;;;;9.97;100.00;97867.69;4500926;31;20119;-69
2022/04/01 05:05:51;;;;;;;22.07;16.00;;;;;;;10.04;100.00;97868.25;4500896;31;20125;-69
2022/04/01 05:08:37;;;;;;;22.65;14.32;;;;;;;10.12;100.00;97876.59;4501286;31;20705;-69
2022/04/01 05:11:32;;;;;;;15.93;12.63;;;;;;;10.20;100.00;97882.31;4500710;31;20097;-69
2022/04/01 05:14:11;;;;;;;14.82;12.68;;;;;;;10.22;100.00;97867.31;4500444;31;20118;-69
2022/04/01 05:16:54;;;;;;;15.60;13.00;;;;;;;10.21;100.00;97868.25;4500435;31;20438;-69
2022/04/01 05:19:30;;;;;;;17.20;12.95;;;;;;;10.22;100.00;97877.00;4500414;31;20088;-69
2022/04/01 05:22:04;;;;;;;14.68;11.82;;;;;;;10.19;100.00;97880.63;4500565;31;20560;-69
2022/04/01 05:24:38;;;;;;;14.82;11.38;;;;;;;10.18;100.00;97876.28;4500045;31;20091;-69
2022/04/01 05:27:18;;;;;;;15.60;10.77;;;;;;;10.18;100.00;97868.41;4500561;31;20504;-69
2022/04/01 05:29:57;;;;;;;14.43;12.05;;;;;;;10.19;100.00;97866.63;4500645;31;20147;-69
2022/04/01 05:32:31;;;;;;;14.43;11.88;;;;;;;10.23;100.00;97869.00;4500620;31;20758;-69
2022/04/01 05:35:00;;;;;;;16.30;13.13;;;;;;;10.29;100.00;97866.09;4514408;31;20435;-69
2022/04/01 05:37:29;;;;;;;16.02;12.55;;;;;;;10.32;100.00;97866.84;4516809;31;20116;-69
2022/04/01 05:39:58;;;;;;;19.35;12.57;;;;;;;10.28;100.00;97877.56;4515963;31;20141;-69
2022/04/01 05:42:33;;;;;;;15.82;12.90;;;;;;;10.25;100.00;97867.19;4514621;31;20088;-68
2022/04/01 05:45:02;;;;;;;13.57;10.48;;;;;;;10.29;100.00;97868.72;4507541;31;20433;-68
2022/04/01 05:47:33;;;;;;;14.43;10.55;;;;;;;10.26;100.00;97868.03;4506833;31;20175;-69
2022/04/01 05:50:01;;;;;;;19.12;9.90;;;;;;;10.22;100.00;97866.47;4501068;31;20715;-69
2022/04/01 05:52:34;;;;;;;14.18;10.02;;;;;;;10.23;100.00;97873.41;4516386;31;20087;-69
2022/04/01 05:55:02;;;;;;;13.05;9.98;;;;;;;10.16;100.00;97878.12;4514627;31;20092;-69
2022/04/01 05:57:29;;;;;;;14.43;10.00;;;;;;;10.05;100.00;97881.31;4518592;31;20742;-70
2022/04/01 05:59:57;;;;;;;13.00;8.70;;;;;;;10.06;100.00;97875.09;4518723;31;20080;-69
2022/04/01 06:02:49;;;;;;;17.90;10.10;;;;;;;10.04;100.00;97876.97;4502659;31;20091;-69
2022/04/01 06:05:35;;;;;;;13.88;8.65;;;;;;;10.09;100.00;97875.91;4502756;31;20104;-69
2022/04/01 06:08:11;;;;;;;16.67;9.60;;;;;;;10.02;100.00;97880.59;4502823;31;20103;-69
2022/04/01 06:10:57;;;;;;;17.42;9.45;;;;;;;9.97;100.00;97869.47;4502834;31;20106;-69
2022/04/01 06:13:55;;;;;;;8.30;5.85;;;;;;;10.00;100.00;97861.41;4502988;31;20099;-68
2022/04/01 06:17:02;;;;;;;7.97;5.30;;;;;;;9.98;100.00;97860.66;4502608;31;20718;-69
2022/04/01 06:19:37;;;;;;;5.28;4.18;;;;;;;10.09;100.00;97865.38;4490952;31;20095;-68
2022/04/01 06:22:12;;;;;;;5.20;4.05;;;;;;;10.10;100.00;97867.06;4502847;31;20075;-69
2022/04/01 06:24:58;;;;;;;5.57;4.03;;;;;;;10.07;100.00;97860.19;4502669;31;20142;-69
2022/04/01 06:27:34;;;;;;;6.12;3.95;;;;;;;10.00;100.00;97867.53;4502696;31;20122;-70
2022/04/01 06:30:07;;;;;;;8.50;4.00;;;;;;;10.08;100.00;97874.19;4502741;31;20096;-69
2022/04/01 06:33:07;;;;;;;3.95;3.53;;;;;;;10.13;100.00;97872.19;4502969;31;20087;-68
2022/04/01 06:35:55;;;;;;;7.85;5.28;;;;;;;10.15;100.00;97878.22;4503085;31;20096;-69
2022/04/01 06:38:41;;;;;;;13.20;5.10;;;;;;;10.17;100.00;97885.09;4502760;31;20123;-69
2022/04/01 06:41:14;;;;;;;7.55;4.90;;;;;;;10.32;100.00;97882.66;4502788;31;20108;-69
2022/04/01 06:43:43;;;;;;;7.78;5.32;;;;;;;10.30;100.00;97880.09;4502807;31;20139;-69
2022/04/01 06:46:15;;;;;;;6.07;4.60;;;;;;;10.22;100.00;97880.47;4501868;31;20191;-69
2022/04/01 06:48:44;;;;;;;5.43;3.87;;;;;;;10.33;100.00;97874.69;4502262;31;20154;-69
2022/04/01 06:51:30;;;;;;;7.15;4.32;;;;;;;10.45;100.00;97874.03;4502766;31;20164;-68
2022/04/01 06:54:12;;;;;;;4.32;3.83;;;;;;;10.50;100.00;97868.56;4502637;31;20390;-69
2022/04/01 06:56:43;;;;;;;5.05;4.20;;;;;;;10.55;100.00;97871.78;4512927;31;20412;-69
2022/04/01 06:59:11;;;;;;;5.03;3.75;;;;;;;10.59;100.00;97872.50;4518425;31;20160;-70
2022/04/01 07:01:38;;;;;;;4.97;3.85;;;;;;;10.65;100.00;97867.75;4517629;31;20448;-69
2022/04/01 07:04:05;;;;;;;4.93;3.83;;;;;;;10.63;100.00;97871.41;4518569;31;20525;-68
2022/04/01 07:06:34;;;;;;;8.15;3.37;;;;;;;10.58;100.00;97873.44;4518387;31;20115;-69
2022/04/01 07:09:01;;;;;;;7.22;4.35;;;;;;;10.51;100.00;97886.91;4503156;31;20126;-68
2022/04/01 07:11:28;;;;;;;6.20;3.70;;;;;;;10.39;100.00;97890.19;4518314;31;20100;-68
2022/04/01 07:13:56;;;;;;;5.32;4.57;;;;;;;10.45;100.00;97895.09;4518268;31;20140;-68
2022/04/01 07:16:23;;;;;;;8.05;4.43;;;;;;;10.50;100.00;97889.63;4518447;31;20762;-69
2022/04/01 07:18:50;;;;;;;6.05;4.97;;;;;;;10.58;100.00;97890.06;4518561;31;20151;-68
2022/04/01 07:21:18;;;;;;;5.93;4.03;;;;;;;10.48;100.00;97894.09;4518487;31;20122;-69
2022/04/01 07:23:46;;;;;;;5.62;3.97;;;;;;;10.56;100.00;97889.28;4513519;31;20087;-69
2022/04/01 07:26:13;;;;;;;5.87;3.97;;;;;;;10.60;100.00;97895.25;4502179;31;20149;-69
2022/04/01 07:28:40;;;;;;;4.35;3.95;;;;;;;10.59;100.00;97896.19;4501741;31;20151;-70
2022/04/01 07:34:23;;;;;;;3.92;1.90;;;;;;;10.48;100.00;97886.22;4501668;31;20083;-69
2022/04/01 07:36:50;;;;;;;2.12;1.92;;;;;;;10.45;100.00;97896.91;4502075;31;20164;-68
2022/04/01 07:39:17;;;;;;;2.37;1.83;;;;;;;10.41;100.00;97888.31;4502321;31;20521;-67
2022/04/01 07:41:45;;;;;;;2.00;1.90;;;;;;;10.40;100.00;97894.50;4502291;31;20139;-69
2022/04/01 07:44:12;;;;;;;1.98;1.87;;;;;;;10.11;100.00;97895.94;4501445;31;20092;-69
2022/04/01 07:46:39;;;;;;;3.30;2.40;;;;;;;10.13;100.00;97893.22;4502362;31;20095;-69
2022/04/01 07:49:13;;;;;;;3.40;3.10;;;;;;;9.91;100.00;97906.59;4501929;31;20127;-68
2022/04/01 07:52:01;;;;;;;3.25;2.87;;;;;;;9.75;100.00;97898.56;4502160;31;20087;-70
2022/04/01 07:54:28;;;;;;;3.87;2.95;;;;;;;9.83;100.00;97899.09;4502237;31;20426;-71
2022/04/01 07:56:55;;;;;;;2.45;2.03;;;;;;;9.97;100.00;97904.53;4501675;31;20156;-72
2022/04/01 07:59:24;;;;;;;3.17;1.80;;;;;;;9.86;100.00;97911.22;4501952;31;20092;-72
2022/04/01 08:01:51;;;;;;;3.20;2.10;;;;;;;9.90;100.00;97904.91;4502215;31;20162;-71
2022/04/01 08:04:19;;;;;;;2.67;1.80;;;;;;;9.73;100.00;97901.28;4502285;31;20079;-72
2022/04/01 08:06:46;;;;;;;4.15;2.55;;;;;;;9.79;100.00;97910.69;4501827;31;20710;-72
2022/04/01 08:09:14;;;;;;;7.35;2.42;;;;;;;9.67;100.00;97913.88;4505742;31;20088;-71
2022/04/01 08:11:41;;;;;;;5.78;3.60;;;;;;;9.62;100.00;97918.53;4512536;31;20159;-72
2022/04/01 08:14:08;;;;;;;3.05;1.70;;;;;;;9.58;100.00;97916.03;4508699;31;20084;-72
2022/04/01 08:16:35;;;;;;;2.60;2.40;;;;;;;9.37;100.00;97922.28;4510514;31;20099;-71
2022/04/01 08:19:03;;;;;;;3.75;1.90;;;;;;;9.33;100.00;97920.75;4509255;31;20092;-71
2022/04/01 08:21:31;;;;;;;2.20;1.80;;;;;;;9.33;100.00;97924.22;4508251;31;20147;-70
2022/04/01 08:23:59;;;;;;;2.17;2.05;;;;;;;9.43;100.00;97929.03;4508704;31;20092;-71
2022/04/01 08:26:27;;;;;;;4.72;2.60;;;;;;;9.33;100.00;97936.50;4490063;31;20737;-71
2022/04/01 08:28:55;;;;;;;2.87;1.90;;;;;;;9.15;100.00;97946.09;4507801;31;20100;-71
2022/04/01 08:31:23;;;;;;;2.20;2.00;;;;;;;9.08;100.00;97942.87;4509975;31;20137;-71
2022/04/01 08:33:50;;;;;;;3.75;1.98;;;;;;;9.05;100.00;97943.00;4511135;31;20107;-71
2022/04/01 08:36:19;;;;;;;2.33;2.12;;;;;;;8.83;100.00;97947.47;4507537;31;20199;-70
2022/04/01 08:38:46;;;;;;;2.15;1.95;;;;;;;8.81;100.00;97944.09;4509493;31;20142;-71
2022/04/01 08:41:18;;;;;;;5.45;2.62;;;;;;;8.77;100.00;97950.41;4509669;31;20911;-72
2022/04/01 08:43:48;;;;;;;3.53;2.60;;;;;;;8.87;100.00;97954.34;4508489;31;20080;-71
2022/04/01 08:46:16;;;;;;;3.15;2.72;;;;;;;9.08;100.00;97963.00;4508501;31;20213;-71
2022/04/01 08:48:44;;;;;;;3.15;2.17;;;;;;;9.27;100.00;97970.94;4500427;31;20202;-71
2022/04/01 08:51:13;;;;;;;2.87;2.58;;;;;;;9.30;100.00;97969.03;4500695;31;20490;-72
2022/04/01 08:53:44;;;;;;;2.70;2.50;;;;;;;9.36;100.00;97969.66;4500882;31;20151;-72
2022/04/01 08:56:12;;;;;;;6.35;2.90;;;;;;;9.43;100.00;97974.56;4500910;31;20131;-71
2022/04/01 08:58:39;;;;;;;3.72;2.87;;;;;;;9.57;100.00;97976.56;4500787;31;20161;-71
2022/04/01 09:01:07;;;;;;;6.78;3.20;;;;;;;9.91;100.00;97982.88;4500083;31;20419;-71
2022/04/01 09:03:35;;;;;;;3.65;3.05;;;;;;;9.66;100.00;97985.81;4507497;31;20702;-71
2022/04/01 09:06:05;;;;;;;5.00;2.95;;;;;;;9.64;100.00;97975.34;4508584;31;20517;-71
2022/04/01 09:08:35;;;;;;;2.95;2.45;;;;;;;9.44;100.00;97972.81;4507478;31;20216;-71
2022/04/01 09:11:16;;;;;;;2.50;2.30;;;;;;;9.39;100.00;97980.03;4509434;31;20182;-71
2022/04/01 09:13:43;;;;;;;2.30;2.10;;;;;;;9.37;100.00;97976.63;4508885;31;20083;-71
2022/04/01 09:16:31;;;;;;;3.10;2.90;;;;;;;9.40;100.00;97976.47;4507692;31;20548;-71
2022/04/01 09:19:02;;;;;;;4.22;2.90;;;;;;;9.42;100.00;97979.91;4505339;31;20171;-70
2022/04/01 09:21:32;;;;;;;3.12;2.70;;;;;;;9.63;100.00;97980.69;4500862;31;20455;-72
2022/04/01 09:24:01;;;;;;;2.30;2.10;;;;;;;9.43;100.00;97977.19;4501816;31;20170;-72
2022/04/01 09:26:39;;;;;;;4.37;2.78;;;;;;;9.37;100.00;97990.63;4503233;31;20100;-72
2022/04/01 09:29:08;;;;;;;4.85;2.47;;;;;;;9.50;100.00;97978.59;4502972;31;20112;-71
2022/04/01 09:31:38;;;;;;;5.65;2.12;;;;;;;9.37;100.00;97982.75;4503456;31;20091;-72
2022/04/01 09:34:11;;;;;;;1.87;1.77;;;;;;;9.20;100.00;97991.38;4502624;31;20151;-71
2022/04/01 09:36:41;;;;;;;2.10;1.90;;;;;;;9.31;100.00;97996.16;4502408;31;20160;-72
2022/04/01 09:39:12;;;;;;;3.72;2.28;;;;;;;9.39;100.00;97998.44;4503200;31;20088;-71
2022/04/01 09:41:43;;;;;;;3.58;2.40;;;;;;;9.30;100.00;98002.34;4503371;31;20099;-72
2022/04/01 09:44:35;;;;;;;2.83;2.53;;;;;;;8.91;100.00;98011.06;4503150;31;20088;-72
2022/04/01 09:47:05;;;;;;;3.65;2.80;;;;;;;8.91;100.00;98005.81;4504652;31;20092;-73
2022/04/01 09:49:36;;;;;;;3.78;3.08;;;;;;;9.13;100.00;98008.34;4506899;31;20087;-72
2022/04/01 09:52:12;;;;;;;5.85;3.78;;;;;;;9.05;100.00;97994.69;4513025;31;20128;-72
2022/04/01 09:54:54;;;;;;;7.10;3.65;;;;;;;9.29;100.00;98005.88;4515120;31;20135;-73
2022/04/01 09:57:23;;;;;;;3.70;3.10;;;;;;;9.34;100.00;98003.91;4504095;31;20114;-72
2022/04/01 09:59:55;;;;;;;3.35;2.72;;;;;;;9.27;99.45;98012.97;4505325;31;20118;-72
2022/04/01 10:02:22;;;;;;;4.28;3.10;;;;;;;9.06;100.00;98010.38;4503211;31;20448;-71
2022/04/01 10:04:50;;;;;;;5.95;4.05;;;;;;;9.16;100.00;98005.56;4502714;31;20115;-73
2022/04/01 10:07:19;;;;;;;6.87;4.60;;;;;;;9.17;100.00;98009.06;4510661;31;20076;-72
2022/04/01 10:09:48;;;;;;;15.63;8.75;;;;;;;9.12;100.00;98008.38;4515100;31;20126;-72
2022/04/01 10:12:38;;;;;;;10.57;5.53;;;;;;;8.94;100.00;98018.81;4518671;31;20099;-72
2022/04/01 10:15:07;;;;;;;5.47;4.32;;;;;;;9.11;100.00;98018.03;4519089;31;20079;-70
2022/04/01 10:17:54;;;;;;;11.25;6.60;;;;;;;9.02;100.00;98016.69;4518969;31;20415;-71
2022/04/01 10:20:29;;;;;;;9.50;5.68;;;;;;;8.65;100.00;98034.91;4512832;31;20218;-70
2022/04/01 10:22:57;;;;;;;7.90;5.62;;;;;;;8.48;100.00;98033.87;4502490;31;20145;-70
2022/04/01 10:25:49;;;;;;;9.02;5.97;;;;;;;8.65;100.00;98041.00;4502853;31;20470;-71
2022/04/01 10:28:18;;;;;;;6.70;5.07;;;;;;;8.78;100.00;98044.00;4502846;31;20108;-71
2022/04/01 10:30:58;;;;;;;7.78;5.18;;;;;;;8.69;100.00;98047.84;4502864;31;20113;-70
2022/04/01 10:33:26;;;;;;;6.78;4.97;;;;;;;8.37;100.00;98055.28;4502897;31;20104;-71
2022/04/01 10:35:55;;;;;;;9.55;5.68;;;;;;;8.35;100.00;98056.22;4501951;31;20154;-71
2022/04/01 10:38:27;;;;;;;9.50;7.05;;;;;;;8.39;100.00;98060.47;4502179;31;20155;-71
2022/04/01 10:41:08;;;;;;;11.02;7.25;;;;;;;8.33;100.00;98061.53;4501502;31;20119;-71
2022/04/01 10:43:40;;;;;;;8.90;7.25;;;;;;;8.24;100.00;98061.91;4502353;31;20091;-71
2022/04/01 10:46:14;;;;;;;10.07;7.47;;;;;;;8.05;100.00;98061.75;4502289;31;20105;-71
2022/04/01 10:52:18;;;;;;;11.10;6.97;;;;;;;8.19;100.00;98063.00;4502373;31;20087;-71
2022/04/01 10:54:50;;;;;;;9.70;7.72;;;;;;;8.27;100.00;98069.66;4505927;31;20129;-70
2022/04/01 10:57:30;;;;;;;9.32;6.93;;;;;;;8.08;100.00;98071.28;4505045;31;20075;-71
2022/04/01 11:00:08;;;;;;;9.55;7.32;;;;;;;8.04;100.00;98061.81;4506485;31;20148;-71
2022/04/01 11:02:36;;;;;;;10.38;7.43;;;;;;;7.87;100.00;98072.94;4507398;31;20112;-71
2022/04/01 11:05:23;;;;;;;11.23;7.90;;;;;;;7.65;100.00;98078.16;4504681;31;20129;-70
2022/04/01 11:08:17;;;;;;;12.40;7.87;;;;;;;7.68;100.00;98069.34;4509685;31;20545;-70
2022/04/01 11:11:03;;;;;;;11.73;8.20;;;;;;;7.84;100.00;98075.69;4504416;31;20117;-70
2022/04/01 11:13:30;;;;;;;10.57;8.15;;;;;;;7.84;100.00;98084.44;4505625;31;20096;-71
2022/04/01 11:16:25;;;;;;;8.75;6.62;;;;;;;7.98;100.00;98083.03;4508039;31;20112;-71
2022/04/01 11:19:25;;;;;;;9.50;7.22;;;;;;;7.85;100.00;98086.13;4508910;31;20142;-71
2022/04/01 11:21:52;;;;;;;11.40;8.32;;;;;;;7.54;100.00;98085.56;4486021;31;20435;-71
2022/04/01 11:24:30;;;;;;;12.37;8.40;;;;;;;7.58;100.00;98085.38;4500820;31;20104;-71
2022/04/01 11:27:26;;;;;;;10.93;8.05;;;;;;;7.64;100.00;98087.78;4506299;31;20161;-70
2022/04/01 11:30:05;;;;;;;12.52;9.02;;;;;;;7.65;100.00;98083.41;4488792;31;20219;-70
2022/04/01 11:32:37;;;;;;;11.80;8.50;;;;;;;7.63;100.00;98087.81;4505360;31;20118;-70
2022/04/01 11:35:07;;;;;;;11.00;8.60;;;;;;;7.47;100.00;98081.44;4508502;31;20107;-70
2022/04/01 11:37:42;;;;;;;11.40;8.38;;;;;;;7.47;100.00;98095.41;4507602;31;20164;-70
2022/04/01 11:40:19;;;;;;;14.10;8.98;;;;;;;7.54;100.00;98091.66;4513775;31;20113;-70
2022/04/01 11:42:59;;;;;;;9.77;7.90;;;;;;;7.71;100.00;98088.41;4516032;31;20125;-70
2022/04/01 11:45:28;;;;;;;11.60;8.00;;;;;;;7.94;100.00;98094.56;4516376;31;20691;-70
2022/04/01 11:47:55;;;;;;;11.43;8.40;;;;;;;8.11;100.00;98079.87;4517407;31;20133;-70
2022/04/01 11:50:24;;;;;;;10.35;7.53;;;;;;;8.54;100.00;98086.09;4517632;31;20106;-70